createdAt,value
2022-12-13T00:04:13.585Z,95.73
2022-12-13T00:09:06.463Z,95.62
2022-12-13T00:13:58.226Z,95.79
2022-12-13T00:18:53.893Z,95.67
2022-12-13T00:23:47.375Z,94.57
2022-12-13T00:28:40.412Z,95.09
2022-12-13T00:33:32.457Z,94.87
2022-12-13T00:38:24.894Z,95.48
2022-12-13T00:43:17.075Z,95.36
2022-12-13T00:48:08.822Z,95.18
2022-12-13T00:53:01.760Z,95.17
2022-12-13T00:57:53.493Z,95.39
2022-12-13T01:02:45.613Z,95.07
2022-12-13T01:07:38.185Z,94.10
2022-12-13T01:12:29.884Z,93.63
2022-12-13T01:17:21.546Z,93.89
2022-12-13T01:22:13.310Z,94.50
2022-12-13T01:27:05.098Z,94.67
2022-12-13T01:31:56.862Z,95.56
2022-12-13T01:36:49.946Z,94.81
2022-12-13T01:41:46.764Z,94.34
2022-12-13T01:46:38.420Z,94.24
2022-12-13T01:51:50.478Z,94.23
2022-12-13T01:57:00.566Z,94.77
2022-12-13T02:01:52.838Z,94.03
2022-12-13T02:06:55.780Z,93.88
2022-12-13T02:11:47.634Z,93.45
2022-12-13T02:16:45.531Z,93.56
2022-12-13T02:22:23.383Z,93.03
2022-12-13T02:28:00.535Z,93.11
2022-12-13T02:33:30.662Z,94.20
2022-12-13T02:38:56.057Z,93.87
2022-12-13T02:44:06.099Z,93.72
2022-12-13T02:49:16.215Z,93.92
2022-12-13T02:54:08.042Z,94.41
2022-12-13T02:59:05.195Z,94.00
2022-12-13T03:05:04.624Z,93.88
2022-12-13T03:10:08.355Z,92.51
2022-12-13T03:15:25.203Z,92.72
2022-12-13T03:20:24.134Z,92.22
2022-12-13T03:25:31.259Z,91.65
2022-12-13T03:30:24.067Z,91.78
2022-12-13T03:35:21.934Z,91.09
2022-12-13T03:40:14.576Z,91.51
2022-12-13T03:45:06.859Z,91.03
2022-12-13T03:49:58.534Z,91.42
2022-12-13T03:55:10.765Z,91.15
2022-12-13T04:00:04.629Z,91.08
2022-12-13T04:04:56.708Z,90.82
2022-12-13T04:09:52.458Z,91.02
2022-12-13T04:14:44.321Z,90.25
2022-12-13T04:19:35.979Z,89.55
2022-12-13T04:24:32.150Z,88.97
2022-12-13T04:29:24.019Z,90.13
2022-12-13T04:34:15.704Z,89.98
2022-12-13T04:39:21.914Z,90.13
2022-12-13T04:44:27.341Z,90.16
2022-12-13T04:49:20.876Z,88.94
2022-12-13T04:54:24.007Z,88.84
2022-12-13T04:59:17.032Z,89.84
2022-12-13T05:36:24.740Z,89.58
2022-12-13T05:41:21.587Z,90.05
2022-12-13T05:46:15.057Z,89.95
2022-12-13T06:01:20.695Z,91.31
2022-12-13T06:06:15.851Z,92.08
2022-12-13T06:11:12.481Z,92.61
2022-12-13T06:16:25.197Z,91.71
2022-12-13T06:21:17.115Z,92.71
2022-12-13T06:26:09.360Z,92.35
2022-12-13T06:31:03.867Z,91.97
2022-12-13T06:35:59.706Z,91.23
2022-12-13T07:47:58.472Z,87.66
2022-12-13T07:52:53.017Z,87.51
2022-12-13T07:57:47.058Z,86.87
2022-12-13T08:02:42.391Z,86.89
2022-12-13T08:07:35.783Z,86.36
2022-12-13T08:12:29.444Z,84.38
2022-12-13T08:17:23.122Z,85.08
2022-12-13T08:22:15.150Z,83.98
2022-12-13T08:27:16.358Z,84.20
2022-12-13T08:32:12.192Z,82.94
2022-12-13T08:52:58.270Z,83.35
2022-12-13T09:08:23.357Z,83.82
2022-12-13T09:28:57.433Z,82.16
2022-12-13T09:34:07.611Z,82.77
2022-12-13T09:39:00.433Z,80.15
2022-12-13T09:49:52.831Z,79.56
2022-12-13T09:54:49.555Z,79.22
2022-12-13T10:16:43.748Z,75.31
2022-12-13T10:21:46.040Z,76.09
2022-12-13T10:47:27.317Z,75.37
2022-12-13T10:52:44.587Z,74.89
2022-12-13T12:02:34.273Z,67.60
2022-12-13T12:07:58.400Z,69.71
2022-12-13T12:13:23.007Z,70.01
2022-12-13T12:18:22.486Z,70.34
2022-12-13T12:23:52.913Z,70.65
2022-12-13T12:29:23.607Z,69.67
2022-12-13T12:34:54.143Z,70.25
2022-12-13T12:40:18.586Z,71.19
2022-12-13T12:45:58.662Z,71.85
2022-12-13T12:51:14.435Z,73.00
2022-12-13T13:08:21.206Z,72.42
2022-12-13T13:13:50.063Z,72.73
2022-12-13T13:18:54.882Z,72.03
2022-12-13T13:23:47.028Z,72.47
2022-12-13T13:28:39.546Z,71.35
2022-12-13T13:33:53.323Z,71.53
2022-12-13T13:38:52.322Z,71.25
2022-12-13T13:49:12.251Z,72.73
2022-12-13T13:54:55.297Z,72.90
2022-12-13T14:06:05.452Z,71.45
2022-12-13T14:28:18.405Z,73.63
2022-12-13T14:43:47.035Z,74.31
2022-12-13T14:59:22.972Z,74.56
2022-12-13T15:09:59.532Z,76.14
2022-12-13T15:52:08.417Z,80.22
2022-12-13T16:08:40.690Z,81.70
2022-12-13T16:13:38.980Z,81.46
2022-12-13T16:23:50.903Z,81.83
2022-12-13T16:38:55.355Z,81.57
2022-12-13T16:54:30.771Z,79.49
2022-12-13T16:59:26.223Z,79.24
2022-12-13T17:04:26.220Z,79.90
2022-12-13T17:19:32.806Z,80.00
2022-12-13T17:24:24.988Z,80.21
2022-12-13T17:29:18.566Z,80.73
2022-12-13T17:34:10.707Z,84.81
2022-12-13T17:39:03.015Z,84.26
2022-12-13T17:44:07.254Z,85.18
2022-12-13T17:48:59.816Z,85.38
2022-12-13T17:53:51.500Z,83.91
2022-12-13T17:58:43.959Z,86.24
2022-12-13T18:03:35.971Z,86.00
2022-12-13T18:13:33.967Z,86.35
2022-12-13T18:18:28.587Z,86.28
2022-12-13T18:23:21.335Z,86.38
2022-12-13T18:28:13.309Z,85.01
2022-12-13T18:33:06.067Z,83.50
2022-12-13T18:37:58.553Z,85.21
2022-12-13T18:42:51.055Z,84.75
2022-12-13T18:47:42.956Z,85.07
2022-12-13T18:52:35.546Z,84.51
2022-12-13T18:57:27.392Z,85.17
2022-12-13T19:02:19.208Z,86.07
2022-12-13T19:07:11.120Z,86.35
2022-12-13T19:12:02.824Z,86.61
2022-12-13T19:16:54.787Z,87.65
2022-12-13T19:21:46.858Z,88.37
2022-12-13T19:31:52.094Z,87.84
2022-12-13T19:36:50.486Z,87.80
2022-12-13T19:41:46.230Z,87.45
2022-12-13T19:51:48.552Z,87.79
2022-12-13T19:56:41.311Z,89.19
2022-12-13T20:01:35.418Z,89.59
2022-12-13T20:16:42.003Z,90.60
2022-12-13T20:21:34.697Z,90.33
2022-12-13T20:26:30.479Z,90.72
2022-12-13T20:31:35.307Z,91.19
2022-12-13T20:36:29.303Z,90.82
2022-12-13T20:41:21.484Z,91.31
2022-12-13T20:46:15.387Z,91.42
2022-12-13T20:51:10.861Z,92.91
2022-12-13T20:56:02.875Z,92.54
2022-12-13T21:00:55.282Z,92.96
2022-12-13T21:05:47.708Z,94.17
2022-12-13T21:10:40.366Z,92.41
2022-12-13T21:15:32.253Z,93.45
2022-12-13T21:20:24.299Z,94.44
2022-12-13T21:25:16.437Z,93.94
2022-12-13T21:30:09.289Z,96.65
2022-12-13T21:35:01.289Z,98.15
2022-12-13T21:39:52.961Z,98.88
2022-12-13T21:49:50.468Z,97.90
2022-12-13T21:54:42.359Z,98.97
2022-12-13T21:59:34.421Z,96.39
2022-12-13T22:04:26.288Z,96.85
2022-12-13T22:19:51.222Z,96.74
2022-12-13T22:24:43.010Z,96.18
2022-12-13T22:39:46.538Z,96.77
2022-12-13T22:44:40.407Z,97.00
2022-12-13T22:49:33.916Z,96.29
2022-12-13T22:54:26.395Z,97.31
2022-12-13T22:59:26.254Z,97.21
2022-12-13T23:04:18.178Z,96.47
2022-12-13T23:09:18.591Z,96.17
2022-12-13T23:14:22.249Z,96.27
2022-12-13T23:24:22.198Z,92.96
2022-12-13T23:34:21.341Z,94.10
2022-12-13T23:39:13.719Z,93.59
2022-12-13T23:44:20.276Z,94.13
2022-12-13T23:49:12.469Z,94.03
2022-12-13T23:54:07.903Z,93.13
2022-12-13T23:59:00.309Z,92.00
